Time;durP1;ratioP1;P1;durP2;ratioP2;P2;SDS_P1;SDS_P2;PMS_P1;PMS_P2;Temp;Humidity;BMP_temperature;BMP_pressure;BME280_temperature;BME280_humidity;BME280_pressure;Samples;Min_cycle;Max_cycle;Signal;HPM_P1;HPM_P2
2021/09/25 00:00:21;;;;;;;9.27;7.47;;;12.80;99.90;;;;;;5054440;28;20213;-59
2021/09/25 00:02:47;;;;;;;8.43;7.47;;;12.80;99.90;;;;;;5054270;28;20236;-59
2021/09/25 00:05:14;;;;;;;8.67;7.37;;;12.80;99.90;;;;;;5053982;28;20221;-59
2021/09/25 00:07:41;;;;;;;10.20;7.50;;;12.70;99.90;;;;;;5054143;28;20206;-61
2021/09/25 00:10:08;;;;;;;10.90;7.33;;;12.70;99.90;;;;;;5053899;28;20209;-59
2021/09/25 00:12:35;;;;;;;10.30;7.87;;;12.70;99.90;;;;;;5053659;28;20241;-61
2021/09/25 00:15:01;;;;;;;7.50;6.70;;;12.70;99.90;;;;;;5053815;28;20620;-59
2021/09/25 00:17:29;;;;;;;12.43;7.97;;;12.60;99.90;;;;;;5053762;28;20210;-58
2021/09/25 00:19:56;;;;;;;8.30;7.13;;;12.60;99.90;;;;;;5053544;28;20275;-58
2021/09/25 00:22:23;;;;;;;8.60;7.50;;;12.70;99.90;;;;;;5053550;28;20234;-58
2021/09/25 00:24:49;;;;;;;11.43;6.63;;;12.60;99.90;;;;;;5053235;28;20704;-59
2021/09/25 00:27:16;;;;;;;8.67;7.50;;;12.60;99.90;;;;;;5053690;28;20582;-58
2021/09/25 00:29:43;;;;;;;9.00;7.90;;;12.70;99.90;;;;;;5053612;28;20263;-59
2021/09/25 00:32:09;;;;;;;7.93;7.13;;;12.60;99.90;;;;;;5053252;28;20573;-59
2021/09/25 00:34:37;;;;;;;12.27;7.43;;;12.60;99.90;;;;;;5053247;28;20209;-61
2021/09/25 00:37:05;;;;;;;8.10;6.57;;;12.60;99.90;;;;;;5052697;28;20213;-59
2021/09/25 00:39:31;;;;;;;8.93;7.70;;;12.60;99.90;;;;;;5053225;28;20266;-61
2021/09/25 00:41:58;;;;;;;8.80;7.53;;;12.50;99.90;;;;;;5053366;28;20226;-59
2021/09/25 00:44:25;;;;;;;9.37;7.30;;;12.50;99.90;;;;;;5053138;28;20209;-60
2021/09/25 00:46:52;;;;;;;8.87;6.80;;;12.50;99.90;;;;;;5052986;28;20229;-60
2021/09/25 00:49:20;;;;;;;7.70;6.80;;;12.50;99.90;;;;;;5052998;28;20210;-58
2021/09/25 00:51:49;;;;;;;7.83;7.03;;;12.40;99.90;;;;;;5052883;28;20638;-59
2021/09/25 00:54:16;;;;;;;7.33;6.63;;;12.50;99.90;;;;;;5052839;28;20206;-59
2021/09/25 00:56:44;;;;;;;9.23;7.17;;;12.40;99.90;;;;;;5053131;28;20202;-58
2021/09/25 00:59:12;;;;;;;10.43;7.77;;;12.40;99.90;;;;;;5052981;28;20716;-58
2021/09/25 01:01:39;;;;;;;8.40;7.03;;;12.30;99.90;;;;;;5052850;28;20620;-58
2021/09/25 01:04:06;;;;;;;8.30;7.40;;;12.40;99.90;;;;;;5052705;28;20221;-61
2021/09/25 01:06:33;;;;;;;9.80;7.80;;;12.40;99.90;;;;;;5053332;28;20628;-59
2021/09/25 01:09:01;;;;;;;8.83;7.50;;;12.40;99.90;;;;;;5053108;28;20622;-58
2021/09/25 01:11:28;;;;;;;10.33;7.43;;;12.40;99.90;;;;;;5052906;28;20240;-63
2021/09/25 01:13:55;;;;;;;8.20;7.40;;;12.40;99.90;;;;;;5053124;28;20276;-59
2021/09/25 01:16:22;;;;;;;11.80;7.70;;;12.40;99.90;;;;;;5052955;28;20591;-62
2021/09/25 01:18:50;;;;;;;8.97;8.07;;;12.40;99.90;;;;;;5052383;28;20230;-57
2021/09/25 01:21:19;;;;;;;8.43;7.47;;;12.40;99.90;;;;;;5052568;28;20279;-59
2021/09/25 01:23:46;;;;;;;8.27;7.37;;;12.40;99.90;;;;;;5052616;28;20198;-58
2021/09/25 01:26:13;;;;;;;9.27;7.77;;;12.40;99.90;;;;;;5052505;28;20224;-57
2021/09/25 01:28:44;;;;;;;11.03;7.93;;;12.30;99.90;;;;;;5052474;28;20206;-61
2021/09/25 01:31:13;;;;;;;8.23;7.43;;;12.30;99.90;;;;;;5052199;28;20619;-60
2021/09/25 01:33:43;;;;;;;11.23;7.80;;;12.30;99.90;;;;;;5052382;28;20205;-58
2021/09/25 01:36:11;;;;;;;10.43;8.10;;;12.30;99.90;;;;;;5052418;28;20213;-58
2021/09/25 01:38:40;;;;;;;8.53;7.57;;;12.30;99.90;;;;;;5052324;28;20212;-60
2021/09/25 01:41:08;;;;;;;8.47;7.63;;;12.30;99.90;;;;;;5052240;28;20221;-60
2021/09/25 01:43:35;;;;;;;11.03;6.93;;;12.30;99.90;;;;;;5051751;28;20210;-62
2021/09/25 01:46:01;;;;;;;7.70;6.90;;;12.20;99.90;;;;;;5051802;28;20252;-58
2021/09/25 01:48:28;;;;;;;9.60;8.27;;;12.20;99.90;;;;;;5051061;28;20206;-58
2021/09/25 01:50:55;;;;;;;8.43;7.63;;;12.20;99.90;;;;;;5051628;28;20708;-60
2021/09/25 01:53:22;;;;;;;9.00;7.37;;;12.20;99.90;;;;;;5052016;28;20224;-58
2021/09/25 01:55:51;;;;;;;7.23;6.53;;;12.20;99.90;;;;;;5052022;28;20335;-59
2021/09/25 01:58:18;;;;;;;9.67;7.63;;;12.20;99.90;;;;;;5051581;28;20212;-59
2021/09/25 02:00:45;;;;;;;9.20;7.50;;;12.20;99.90;;;;;;5051714;28;20664;-59
2021/09/25 02:03:14;;;;;;;9.67;7.63;;;12.10;99.90;;;;;;5051792;28;20267;-60
2021/09/25 02:05:41;;;;;;;11.53;7.50;;;12.10;99.90;;;;;;5051454;28;20218;-59
2021/09/25 02:08:07;;;;;;;8.50;7.57;;;12.00;99.90;;;;;;5051691;28;20206;-59
2021/09/25 02:10:34;;;;;;;10.10;7.17;;;12.00;99.90;;;;;;5051726;28;20209;-58
2021/09/25 02:13:02;;;;;;;8.63;7.70;;;12.00;99.90;;;;;;5051173;28;20724;-59
2021/09/25 02:15:30;;;;;;;8.50;7.47;;;11.90;99.90;;;;;;5051513;28;20213;-59
2021/09/25 02:17:56;;;;;;;8.57;7.13;;;11.90;99.90;;;;;;5051246;28;20579;-58
2021/09/25 02:20:23;;;;;;;10.47;7.70;;;11.80;99.90;;;;;;5051564;28;20210;-60
2021/09/25 02:22:50;;;;;;;9.27;7.73;;;11.80;99.90;;;;;;5051241;28;20298;-59
2021/09/25 02:25:16;;;;;;;9.00;8.00;;;11.80;99.90;;;;;;5051278;28;20205;-58
2021/09/25 02:27:43;;;;;;;8.83;7.70;;;11.80;99.90;;;;;;5051223;28;20236;-58
2021/09/25 02:30:15;;;;;;;9.63;7.90;;;11.80;99.90;;;;;;5051841;28;20209;-59
2021/09/25 02:32:42;;;;;;;11.10;8.17;;;11.80;99.90;;;;;;5051384;28;20271;-62
2021/09/25 02:35:09;;;;;;;10.67;8.23;;;11.80;99.90;;;;;;5051334;28;20634;-59
2021/09/25 02:37:36;;;;;;;9.63;8.07;;;11.80;99.90;;;;;;5051037;28;20209;-59
2021/09/25 02:40:03;;;;;;;9.43;7.60;;;11.90;99.90;;;;;;5050913;28;20210;-59
2021/09/25 02:42:30;;;;;;;11.80;8.27;;;11.90;99.90;;;;;;5051116;28;20635;-59
2021/09/25 02:44:57;;;;;;;12.37;8.00;;;11.90;99.90;;;;;;5050859;28;20216;-58
2021/09/25 02:47:25;;;;;;;11.97;7.80;;;11.90;99.90;;;;;;5050959;28;20597;-61
2021/09/25 02:49:52;;;;;;;10.73;8.07;;;12.00;99.90;;;;;;5050743;28;20221;-61
2021/09/25 02:52:18;;;;;;;9.90;7.90;;;11.90;99.90;;;;;;5050846;28;20287;-59
2021/09/25 02:54:45;;;;;;;11.03;8.07;;;11.90;99.90;;;;;;5050534;28;20296;-59
2021/09/25 02:57:12;;;;;;;8.83;7.67;;;11.90;99.90;;;;;;5050973;28;20209;-58
2021/09/25 02:59:38;;;;;;;10.03;7.43;;;11.90;99.90;;;;;;5050469;28;20235;-59
2021/09/25 03:02:05;;;;;;;10.87;8.80;;;11.90;99.90;;;;;;5050937;28;20253;-62
2021/09/25 03:04:33;;;;;;;9.40;8.40;;;11.90;99.90;;;;;;5050670;28;20206;-61
2021/09/25 03:07:00;;;;;;;9.40;7.23;;;11.90;99.90;;;;;;5050686;28;20631;-58
2021/09/25 03:09:27;;;;;;;8.30;7.50;;;11.80;99.90;;;;;;5050458;28;20206;-59
2021/09/25 03:11:53;;;;;;;9.33;7.57;;;11.70;99.90;;;;;;5050586;28;20244;-61
2021/09/25 03:14:20;;;;;;;9.17;7.70;;;11.60;99.90;;;;;;5050730;28;20213;-59
2021/09/25 03:16:47;;;;;;;8.67;6.93;;;11.50;99.90;;;;;;5050870;28;20201;-58
2021/09/25 03:19:14;;;;;;;10.40;7.33;;;11.50;99.90;;;;;;5050647;28;20201;-59
2021/09/25 03:21:42;;;;;;;10.07;7.03;;;11.40;99.90;;;;;;5050747;28;20232;-60
2021/09/25 03:24:09;;;;;;;7.37;6.47;;;11.50;99.90;;;;;;5050409;28;20214;-60
2021/09/25 03:26:35;;;;;;;8.30;7.13;;;11.40;99.90;;;;;;5050629;28;20226;-59
2021/09/25 03:29:02;;;;;;;7.47;6.77;;;11.50;99.90;;;;;;5050576;28;20303;-59
2021/09/25 03:31:29;;;;;;;11.30;7.53;;;11.50;99.90;;;;;;5050346;28;20236;-59
2021/09/25 03:33:56;;;;;;;7.90;6.53;;;11.50;99.90;;;;;;5050304;28;20213;-58
2021/09/25 03:36:23;;;;;;;8.23;7.37;;;11.50;99.90;;;;;;5050446;28;20201;-59
2021/09/25 03:38:51;;;;;;;8.03;6.87;;;11.60;99.90;;;;;;5050466;28;20217;-59
2021/09/25 03:41:18;;;;;;;8.93;6.97;;;11.60;99.90;;;;;;5050281;28;20728;-59
2021/09/25 03:43:49;;;;;;;11.33;7.63;;;11.60;99.90;;;;;;5050277;28;20214;-60
2021/09/25 03:46:16;;;;;;;9.10;7.17;;;11.50;99.90;;;;;;5050309;28;20279;-59
2021/09/25 03:48:43;;;;;;;9.57;7.10;;;11.50;99.90;;;;;;5050185;28;20217;-61
2021/09/25 03:51:10;;;;;;;7.73;6.40;;;11.40;99.90;;;;;;5050578;28;20253;-60
2021/09/25 03:53:37;;;;;;;8.73;7.30;;;11.40;99.90;;;;;;5050829;28;20213;-59
2021/09/25 03:56:07;;;;;;;7.53;6.43;;;11.40;99.90;;;;;;5050928;28;20201;-60
2021/09/25 03:58:35;;;;;;;12.67;7.17;;;11.40;99.90;;;;;;5050276;28;20213;-58
2021/09/25 04:01:01;;;;;;;8.67;7.17;;;11.40;99.90;;;;;;5050041;28;20205;-62
2021/09/25 04:03:28;;;;;;;9.13;6.93;;;11.40;99.90;;;;;;5049910;28;20206;-59
2021/09/25 04:05:55;;;;;;;10.07;7.07;;;11.50;99.90;;;;;;5050339;28;20213;-59
2021/09/25 04:08:22;;;;;;;8.50;7.30;;;11.40;99.90;;;;;;5050258;28;20312;-61
2021/09/25 04:10:49;;;;;;;9.10;7.47;;;11.40;99.90;;;;;;5050937;28;20209;-59
2021/09/25 04:13:17;;;;;;;10.07;7.27;;;11.50;99.90;;;;;;5054238;28;20271;-61
2021/09/25 04:15:43;;;;;;;10.10;7.10;;;11.70;99.90;;;;;;5053550;28;20209;-65
2021/09/25 04:18:10;;;;;;;8.60;6.90;;;11.80;99.90;;;;;;5053468;28;20205;-60
2021/09/25 04:20:38;;;;;;;8.07;7.27;;;11.90;99.90;;;;;;5053793;28;20209;-62
2021/09/25 04:23:05;;;;;;;10.87;8.23;;;12.00;99.90;;;;;;5053670;28;20287;-62
2021/09/25 04:25:32;;;;;;;8.07;7.03;;;12.00;99.90;;;;;;5053424;28;20206;-62
2021/09/25 04:27:59;;;;;;;10.23;7.70;;;12.00;99.90;;;;;;5053478;28;20228;-62
2021/09/25 04:30:27;;;;;;;9.33;7.70;;;11.90;99.90;;;;;;5053389;28;20275;-61
2021/09/25 04:32:54;;;;;;;7.60;6.80;;;11.80;99.90;;;;;;5053209;28;20279;-61
2021/09/25 04:35:20;;;;;;;11.10;7.23;;;11.80;99.90;;;;;;5053266;28;20209;-62
2021/09/25 04:37:47;;;;;;;9.03;7.50;;;11.80;99.90;;;;;;5053153;28;20205;-62
2021/09/25 04:40:14;;;;;;;9.37;7.90;;;11.80;99.90;;;;;;5053303;28;20201;-62
2021/09/25 04:42:42;;;;;;;8.83;7.50;;;11.80;99.90;;;;;;5052955;28;20643;-62
2021/09/25 04:45:12;;;;;;;8.57;7.20;;;11.90;99.90;;;;;;5052818;28;20578;-62
2021/09/25 04:47:40;;;;;;;10.33;7.60;;;11.80;99.90;;;;;;5052740;28;20222;-62
2021/09/25 04:50:08;;;;;;;10.00;7.40;;;11.70;99.90;;;;;;5053228;28;20621;-62
2021/09/25 04:52:35;;;;;;;9.43;7.70;;;11.70;99.90;;;;;;5053248;28;20237;-62
2021/09/25 04:55:01;;;;;;;11.50;6.87;;;11.80;99.90;;;;;;5053083;28;20275;-62
2021/09/25 04:57:28;;;;;;;8.53;7.47;;;11.80;99.90;;;;;;5052760;28;20201;-61
2021/09/25 04:59:55;;;;;;;9.90;8.07;;;11.80;99.90;;;;;;5053148;28;20206;-61
2021/09/25 05:02:21;;;;;;;8.47;7.57;;;11.70;99.90;;;;;;5052859;28;20231;-61
2021/09/25 05:04:49;;;;;;;8.40;7.50;;;11.70;99.90;;;;;;5052669;28;20210;-60
2021/09/25 05:07:16;;;;;;;12.27;8.00;;;11.70;99.90;;;;;;5052759;28;20233;-62
2021/09/25 05:09:43;;;;;;;10.30;7.67;;;11.80;99.90;;;;;;5052791;28;20233;-61
2021/09/25 05:12:10;;;;;;;8.33;7.40;;;11.80;99.90;;;;;;5052609;28;20233;-63
2021/09/25 05:14:40;;;;;;;10.03;7.40;;;11.80;99.90;;;;;;5052626;28;20213;-60
2021/09/25 05:17:06;;;;;;;9.47;8.47;;;11.80;99.90;;;;;;5052892;28;20206;-61
2021/09/25 05:19:33;;;;;;;9.10;8.17;;;11.80;99.90;;;;;;5052452;28;20263;-61
2021/09/25 05:22:01;;;;;;;8.63;7.70;;;11.80;99.90;;;;;;5052328;28;20225;-62
2021/09/25 05:24:28;;;;;;;14.20;10.37;;;11.70;99.90;;;;;;5052211;28;20206;-62
2021/09/25 05:26:55;;;;;;;11.63;8.63;;;11.70;99.90;;;;;;5052712;28;20225;-62
2021/09/25 05:29:23;;;;;;;8.80;7.60;;;11.80;99.90;;;;;;5052349;28;20216;-62
2021/09/25 05:31:50;;;;;;;10.03;6.97;;;11.80;99.90;;;;;;5052241;28;20320;-62
2021/09/25 05:34:17;;;;;;;10.33;8.13;;;11.70;99.90;;;;;;5052118;28;20228;-61
2021/09/25 05:36:43;;;;;;;8.17;7.37;;;11.70;99.90;;;;;;5052714;28;20210;-61
2021/09/25 05:39:11;;;;;;;9.90;7.73;;;11.60;99.90;;;;;;5052149;28;20205;-61
2021/09/25 05:41:38;;;;;;;9.37;8.10;;;11.50;99.90;;;;;;5052502;28;20229;-60
2021/09/25 05:44:05;;;;;;;9.63;7.80;;;11.50;99.90;;;;;;5052288;28;20480;-62
2021/09/25 05:46:32;;;;;;;9.00;8.03;;;11.60;99.90;;;;;;5052197;28;20216;-61
2021/09/25 05:48:58;;;;;;;9.97;7.83;;;11.60;99.90;;;;;;5051839;28;20209;-61
2021/09/25 05:51:25;;;;;;;10.97;8.13;;;11.70;99.90;;;;;;5051920;28;20276;-61
2021/09/25 05:53:52;;;;;;;9.87;8.80;;;11.80;99.90;;;;;;5051789;28;20206;-61
2021/09/25 05:56:20;;;;;;;9.30;8.27;;;11.80;99.90;;;;;;5052326;28;20205;-61
2021/09/25 05:58:46;;;;;;;10.73;8.27;;;11.80;99.90;;;;;;5054521;28;20198;-61
2021/09/25 06:01:13;;;;;;;10.10;8.30;;;11.80;99.90;;;;;;5055573;28;20674;-60
2021/09/25 06:03:40;;;;;;;10.13;8.47;;;11.80;99.90;;;;;;5052336;28;20569;-60
2021/09/25 06:06:06;;;;;;;9.70;8.30;;;11.80;99.90;;;;;;5051805;28;20206;-60
2021/09/25 06:08:33;;;;;;;9.93;8.10;;;11.80;99.90;;;;;;5051474;28;20248;-61
2021/09/25 06:11:00;;;;;;;9.70;8.00;;;11.80;99.90;;;;;;5051803;28;20259;-61
2021/09/25 06:13:28;;;;;;;12.00;9.50;;;11.90;99.90;;;;;;5051897;28;20263;-61
2021/09/25 06:15:54;;;;;;;13.13;9.23;;;11.90;99.90;;;;;;5051723;28;20212;-61
2021/09/25 06:18:21;;;;;;;10.17;8.27;;;12.20;99.90;;;;;;5051559;28;20719;-62
2021/09/25 06:20:48;;;;;;;9.57;8.27;;;12.60;99.90;;;;;;5051263;28;20213;-60
2021/09/25 06:23:14;;;;;;;11.37;7.33;;;13.70;99.90;;;;;;5051840;28;20222;-62
2021/09/25 06:25:41;;;;;;;12.43;9.07;;;15.20;99.90;;;;;;5051323;28;20210;-61
2021/09/25 06:28:08;;;;;;;11.10;9.17;;;16.60;99.90;;;;;;5051068;28;20226;-60
2021/09/25 06:30:40;;;;;;;12.60;9.05;;;17.80;99.90;;;;;;5051149;28;20300;-61
2021/09/25 06:33:07;;;;;;;9.75;7.80;;;19.00;99.90;;;;;;5050983;28;20233;-61
2021/09/25 06:35:34;;;;;;;12.45;8.77;;;20.30;99.90;;;;;;5050610;28;20702;-61
2021/09/25 06:38:00;;;;;;;10.90;8.32;;;21.50;99.90;;;;;;5051172;28;20198;-61
2021/09/25 06:40:27;;;;;;;9.02;6.65;;;22.60;99.90;;;;;;5051295;28;20209;-60
2021/09/25 06:42:54;;;;;;;5.90;5.30;;;23.60;99.90;;;;;;5050974;28;20243;-61
2021/09/25 06:45:21;;;;;;;6.35;5.75;;;24.50;99.90;;;;;;5050666;28;20676;-62
2021/09/25 06:47:49;;;;;;;5.80;4.90;;;25.00;99.90;;;;;;5050737;28;20292;-61
2021/09/25 06:50:16;;;;;;;6.72;5.88;;;25.40;99.90;;;;;;5051325;28;20218;-61
2021/09/25 06:52:42;;;;;;;8.05;5.30;;;26.00;99.90;;;;;;5051198;28;20283;-60
2021/09/25 06:55:10;;;;;;;12.05;6.05;;;26.30;99.60;;;;;;5051087;28;20213;-62
2021/09/25 06:57:37;;;;;;;7.88;5.65;;;26.50;98.30;;;;;;5051108;28;20213;-62
2021/09/25 07:00:04;;;;;;;7.65;6.13;;;26.60;98.10;;;;;;5050760;28;20259;-62
2021/09/25 07:02:31;;;;;;;11.45;8.85;;;26.70;96.90;;;;;;5050750;28;20225;-66
2021/09/25 07:04:59;;;;;;;9.88;7.78;;;26.80;97.50;;;;;;5050730;28;20208;-61
2021/09/25 07:07:25;;;;;;;6.78;5.68;;;27.10;96.50;;;;;;5050970;28;20225;-61
2021/09/25 07:09:52;;;;;;;5.88;5.28;;;27.60;95.50;;;;;;5051204;28;20316;-61
2021/09/25 07:12:19;;;;;;;5.53;4.90;;;28.10;92.90;;;;;;5050780;28;20283;-61
2021/09/25 07:14:45;;;;;;;7.22;5.20;;;28.20;92.30;;;;;;5050590;28;20563;-62
2021/09/25 07:17:12;;;;;;;5.72;5.05;;;28.40;91.40;;;;;;5050826;28;20217;-62
2021/09/25 07:19:39;;;;;;;7.35;5.18;;;28.60;90.20;;;;;;5050734;28;20208;-62
2021/09/25 07:22:08;;;;;;;5.55;5.05;;;28.40;90.20;;;;;;5050819;28;20233;-61
2021/09/25 07:24:35;;;;;;;7.53;5.07;;;28.10;90.50;;;;;;5050613;28;20229;-61
2021/09/25 07:27:02;;;;;;;6.45;5.10;;;28.10;90.40;;;;;;5051202;28;20647;-62
2021/09/25 07:29:28;;;;;;;10.57;5.32;;;28.20;90.30;;;;;;5050656;28;20240;-62
2021/09/25 07:31:55;;;;;;;8.25;5.15;;;28.20;90.00;;;;;;5050750;28;20237;-62
2021/09/25 07:34:22;;;;;;;9.20;5.38;;;28.10;90.00;;;;;;5050948;28;20612;-62
2021/09/25 07:36:49;;;;;;;5.28;4.68;;;28.20;90.10;;;;;;5050661;28;20672;-63
2021/09/25 07:39:17;;;;;;;5.25;4.68;;;28.10;89.30;;;;;;5050609;28;20205;-61
2021/09/25 07:41:44;;;;;;;5.57;4.20;;;27.80;90.20;;;;;;5050577;28;20244;-60
2021/09/25 07:44:11;;;;;;;4.43;4.03;;;27.30;90.50;;;;;;5050023;28;20209;-61
2021/09/25 07:46:38;;;;;;;7.25;4.60;;;26.50;91.60;;;;;;5052374;28;20209;-61
2021/09/25 07:49:05;;;;;;;5.18;4.68;;;25.40;93.10;;;;;;5053832;28;20717;-61
2021/09/25 07:51:32;;;;;;;5.97;4.50;;;24.20;95.00;;;;;;5054221;28;20225;-64
2021/09/25 07:53:59;;;;;;;5.88;5.15;;;23.10;97.10;;;;;;5054121;28;20216;-61
2021/09/25 07:56:27;;;;;;;5.07;4.38;;;22.00;99.30;;;;;;5054004;28;20251;-62
2021/09/25 07:58:54;;;;;;;5.78;4.72;;;21.10;99.90;;;;;;5054221;28;20206;-62
2021/09/25 08:01:20;;;;;;;5.15;4.45;;;20.40;99.90;;;;;;5053822;28;20229;-62
2021/09/25 08:03:47;;;;;;;5.45;4.95;;;19.80;99.90;;;;;;5054819;28;20429;-63
2021/09/25 08:06:14;;;;;;;5.63;5.05;;;19.50;99.90;;;;;;5054682;28;20696;-62
2021/09/25 08:08:40;;;;;;;5.93;5.10;;;19.20;99.90;;;;;;5053794;28;20229;-63
2021/09/25 08:11:07;;;;;;;6.93;4.82;;;19.00;99.90;;;;;;5053736;28;20256;-63
2021/09/25 08:13:35;;;;;;;8.73;5.20;;;18.90;99.90;;;;;;5053665;28;20209;-63
2021/09/25 08:16:02;;;;;;;5.43;4.90;;;18.80;99.90;;;;;;5053938;28;20213;-62
2021/09/25 08:18:29;;;;;;;7.50;5.88;;;18.60;99.90;;;;;;5053814;28;20209;-63
2021/09/25 08:20:56;;;;;;;8.02;5.22;;;18.60;99.90;;;;;;5053758;28;20243;-61
2021/09/25 08:23:24;;;;;;;6.32;5.00;;;18.60;99.90;;;;;;5053900;28;20255;-62
2021/09/25 08:25:53;;;;;;;6.25;5.65;;;18.60;99.90;;;;;;5053663;28;20217;-62
2021/09/25 08:28:20;;;;;;;6.35;5.72;;;18.60;99.90;;;;;;5053603;28;20587;-62
2021/09/25 08:30:48;;;;;;;5.80;5.15;;;18.70;99.90;;;;;;5053754;28;20205;-62
2021/09/25 08:33:15;;;;;;;6.18;5.18;;;18.70;99.90;;;;;;5053843;28;20230;-63
2021/09/25 08:35:42;;;;;;;6.72;4.97;;;18.80;99.90;;;;;;5053182;28;20205;-62
2021/09/25 08:38:08;;;;;;;7.13;5.00;;;18.90;99.90;;;;;;5053205;28;20198;-62
2021/09/25 08:40:35;;;;;;;6.88;6.18;;;19.00;99.90;;;;;;5053109;28;20210;-62
2021/09/25 08:43:03;;;;;;;6.65;5.18;;;19.00;99.90;;;;;;5053219;28;20237;-62
2021/09/25 08:45:30;;;;;;;6.15;4.75;;;19.00;99.90;;;;;;5052973;28;20255;-62
2021/09/25 08:47:58;;;;;;;5.72;5.15;;;19.10;99.90;;;;;;5052784;28;20279;-62
2021/09/25 08:50:27;;;;;;;5.43;4.93;;;19.10;99.90;;;;;;5053266;28;20611;-62
2021/09/25 08:52:53;;;;;;;6.93;4.68;;;19.10;99.90;;;;;;5052596;28;20716;-62
2021/09/25 08:55:21;;;;;;;5.70;4.15;;;19.10;99.90;;;;;;5052802;28;20205;-62
2021/09/25 08:57:47;;;;;;;6.05;4.40;;;19.20;99.90;;;;;;5052398;28;20209;-62
2021/09/25 09:00:26;;;;;;;4.88;4.30;;;19.30;99.90;;;;;;5052964;28;20202;-62
2021/09/25 09:02:54;;;;;;;4.82;4.40;;;19.50;99.90;;;;;;5052696;28;20275;-62
2021/09/25 09:05:29;;;;;;;5.40;4.35;;;19.60;99.90;;;;;;5052547;28;20209;-62
2021/09/25 09:07:57;;;;;;;6.57;4.53;;;19.60;99.90;;;;;;5052469;28;20669;-62
2021/09/25 09:10:28;;;;;;;5.70;4.20;;;19.70;99.90;;;;;;5052740;28;20230;-62
2021/09/25 09:12:56;;;;;;;6.28;4.30;;;19.80;99.90;;;;;;5052591;28;20616;-62
2021/09/25 09:15:31;;;;;;;6.20;4.40;;;19.90;99.90;;;;;;5052936;28;20210;-62
2021/09/25 09:18:00;;;;;;;5.38;4.57;;;20.00;99.90;;;;;;5052328;28;20245;-62
2021/09/25 09:20:28;;;;;;;5.15;4.20;;;20.10;99.90;;;;;;5052816;28;20201;-62
2021/09/25 09:23:12;;;;;;;4.28;3.88;;;20.30;99.90;;;;;;5052623;28;20647;-61
2021/09/25 09:25:39;;;;;;;4.90;4.40;;;20.40;99.90;;;;;;5052605;28;20244;-61
2021/09/25 09:28:11;;;;;;;6.30;4.55;;;20.50;99.90;;;;;;5052520;28;20643;-61
2021/09/25 09:30:47;;;;;;;4.55;4.15;;;20.60;99.90;;;;;;5052601;28;20206;-61
2021/09/25 09:33:28;;;;;;;4.40;4.00;;;20.80;99.90;;;;;;5052567;28;20257;-61
2021/09/25 09:36:14;;;;;;;4.20;3.80;;;21.00;99.90;;;;;;5052769;28;20296;-61
2021/09/25 09:38:42;;;;;;;5.95;4.20;;;21.20;99.90;;;;;;5052546;28;20668;-61
2021/09/25 09:41:10;;;;;;;4.60;3.80;;;21.20;99.90;;;;;;5052445;28;20212;-64
2021/09/25 09:43:37;;;;;;;5.78;4.13;;;21.20;99.90;;;;;;5052112;28;20233;-62
2021/09/25 09:46:04;;;;;;;7.38;4.25;;;21.30;99.90;;;;;;5052256;28;20233;-62
2021/09/25 09:48:31;;;;;;;4.05;3.70;;;21.40;99.90;;;;;;5051896;28;20291;-62
2021/09/25 09:50:59;;;;;;;4.53;3.88;;;21.50;99.90;;;;;;5051785;28;20209;-62
2021/09/25 09:53:29;;;;;;;6.53;4.18;;;21.70;99.90;;;;;;5051744;28;20236;-62
2021/09/25 09:56:17;;;;;;;5.45;3.63;;;21.70;99.90;;;;;;5052208;28;20263;-62
2021/09/25 09:58:44;;;;;;;5.25;4.18;;;21.90;99.90;;;;;;5051883;28;20209;-62
2021/09/25 10:01:11;;;;;;;5.57;3.70;;;22.00;99.90;;;;;;5051982;28;20225;-62
2021/09/25 10:03:39;;;;;;;4.35;3.47;;;22.10;99.90;;;;;;5052289;28;20355;-62
2021/09/25 10:06:07;;;;;;;6.18;4.07;;;22.20;99.90;;;;;;5051846;28;20210;-62
2021/09/25 10:08:34;;;;;;;6.60;3.30;;;22.30;99.90;;;;;;5050655;28;20226;-63
2021/09/25 10:11:01;;;;;;;5.88;3.55;;;22.40;99.90;;;;;;5051174;28;20212;-63
2021/09/25 10:13:28;;;;;;;4.32;3.85;;;22.40;99.90;;;;;;5049206;28;20443;-60
2021/09/25 10:15:55;;;;;;;4.65;3.60;;;22.60;99.90;;;;;;5050562;28;20232;-60
2021/09/25 10:18:22;;;;;;;4.20;3.80;;;22.70;99.90;;;;;;5051160;28;20209;-61
2021/09/25 10:20:49;;;;;;;3.55;3.25;;;22.80;99.90;;;;;;5036109;28;20226;-63
2021/09/25 10:23:17;;;;;;;4.03;3.22;;;22.90;99.90;;;;;;5031764;28;20234;-62
2021/09/25 10:25:44;;;;;;;3.95;3.08;;;23.00;99.90;;;;;;5031093;28;20328;-62
2021/09/25 10:28:24;;;;;;;5.25;3.05;;;23.10;99.90;;;;;;5030900;28;20264;-61
2021/09/25 10:30:51;;;;;;;4.82;3.45;;;23.30;99.90;;;;;;5030713;28;20297;-62
2021/09/25 10:33:18;;;;;;;4.60;3.55;;;23.30;99.90;;;;;;5031358;28;20217;-62
2021/09/25 10:35:45;;;;;;;4.07;3.38;;;23.40;99.90;;;;;;5031335;28;20260;-63
2021/09/25 10:38:12;;;;;;;5.43;3.13;;;23.50;99.90;;;;;;5031134;28;20214;-60
2021/09/25 10:40:42;;;;;;;6.60;3.30;;;23.60;99.90;;;;;;5031131;28;20206;-59
2021/09/25 10:43:22;;;;;;;4.15;3.47;;;23.70;99.90;;;;;;5031121;28;20229;-64
2021/09/25 10:45:50;;;;;;;3.70;3.40;;;23.80;99.90;;;;;;5031919;28;20209;-60
2021/09/25 10:48:25;;;;;;;4.80;3.60;;;23.80;99.90;;;;;;5031333;28;20209;-58
2021/09/25 10:50:54;;;;;;;4.78;3.38;;;23.90;99.90;;;;;;5030897;28;20217;-59
2021/09/25 10:53:23;;;;;;;3.67;3.38;;;24.10;99.90;;;;;;5030604;28;20202;-58
2021/09/25 10:55:54;;;;;;;5.47;3.40;;;24.20;99.90;;;;;;5030602;28;20581;-60
2021/09/25 10:58:32;;;;;;;3.92;3.25;;;24.30;99.90;;;;;;5049885;28;20767;-60
2021/09/25 11:01:01;;;;;;;4.30;3.30;;;24.30;99.90;;;;;;5050907;28;20202;-61
2021/09/25 11:04:08;;;;;;;3.97;3.58;;;24.40;99.90;;;;;;5050782;28;20307;-59
2021/09/25 11:06:51;;;;;;;4.18;3.30;;;24.60;99.90;;;;;;5051112;28;20217;-63
2021/09/25 11:09:39;;;;;;;6.85;3.20;;;24.70;99.90;;;;;;5050773;28;20225;-59
2021/09/25 11:12:10;;;;;;;4.75;3.47;;;24.70;99.90;;;;;;5050488;28;20266;-60
2021/09/25 11:14:44;;;;;;;3.50;3.20;;;24.70;99.90;;;;;;5050864;28;20209;-60
2021/09/25 11:17:27;;;;;;;5.30;4.18;;;24.70;99.90;;;;;;5050597;28;20219;-58
2021/09/25 11:19:55;;;;;;;3.33;3.03;;;24.60;99.90;;;;;;5050963;28;20259;-58
2021/09/25 11:22:26;;;;;;;3.75;3.45;;;24.80;99.90;;;;;;5054637;28;20298;-58
2021/09/25 11:24:55;;;;;;;3.28;2.97;;;24.80;99.90;;;;;;5054316;28;20216;-60
2021/09/25 11:27:27;;;;;;;3.70;3.40;;;24.90;99.90;;;;;;5054494;28;20214;-59
2021/09/25 11:30:05;;;;;;;4.35;3.03;;;25.00;99.90;;;;;;5054617;28;20316;-60
2021/09/25 11:32:33;;;;;;;3.85;3.45;;;25.20;99.90;;;;;;5054369;28;20222;-59
2021/09/25 11:35:03;;;;;;;4.05;3.60;;;25.40;99.90;;;;;;5054096;28;20267;-58
2021/09/25 11:37:30;;;;;;;4.05;3.30;;;25.60;99.90;;;;;;5055025;28;20210;-58
2021/09/25 11:39:58;;;;;;;3.90;3.50;;;25.70;99.90;;;;;;5054476;28;20271;-60
2021/09/25 11:42:28;;;;;;;4.38;3.55;;;25.70;99.90;;;;;;5054444;28;20608;-60
2021/09/25 11:44:57;;;;;;;4.95;3.58;;;25.80;99.90;;;;;;5054317;28;20228;-60
2021/09/25 11:47:29;;;;;;;3.90;3.47;;;25.90;99.90;;;;;;5054140;28;20263;-59
2021/09/25 11:49:58;;;;;;;4.80;3.15;;;26.00;99.90;;;;;;5052285;28;20566;-61
2021/09/25 11:52:26;;;;;;;3.65;3.00;;;26.00;99.90;;;;;;5053802;28;20269;-64
2021/09/25 11:54:53;;;;;;;3.63;3.28;;;25.90;99.90;;;;;;5054070;28;20206;-62
2021/09/25 11:57:22;;;;;;;3.70;3.25;;;25.60;99.90;;;;;;5054257;28;20205;-64
2021/09/25 11:59:51;;;;;;;4.72;3.50;;;25.80;99.90;;;;;;5053385;28;20210;-64
2021/09/25 12:02:39;;;;;;;4.43;3.38;;;25.90;99.90;;;;;;5053817;28;20592;-65
2021/09/25 12:05:08;;;;;;;4.45;3.22;;;25.90;99.90;;;;;;5053794;28;20216;-64
2021/09/25 12:07:43;;;;;;;3.47;3.17;;;26.00;99.80;;;;;;5053835;28;20240;-64
2021/09/25 12:10:17;;;;;;;3.38;3.08;;;26.20;99.00;;;;;;5053674;28;20760;-64
2021/09/25 12:12:44;;;;;;;4.25;3.10;;;26.20;98.90;;;;;;5053311;28;20324;-65
2021/09/25 12:15:13;;;;;;;4.53;3.50;;;26.30;98.90;;;;;;5053290;28;20210;-65
2021/09/25 12:17:40;;;;;;;3.45;3.15;;;26.50;98.50;;;;;;5053778;28;20205;-64
2021/09/25 12:20:20;;;;;;;5.82;5.20;;;26.60;98.10;;;;;;5053552;28;20259;-64
2021/09/25 12:22:47;;;;;;;4.53;2.97;;;26.70;97.60;;;;;;5053685;28;20230;-63
2021/09/25 12:25:14;;;;;;;4.75;3.10;;;26.70;97.60;;;;;;5053432;28;20744;-64
2021/09/25 12:27:42;;;;;;;3.40;2.97;;;26.70;97.30;;;;;;5053223;28;20217;-61
2021/09/25 12:30:13;;;;;;;3.47;3.10;;;26.80;96.90;;;;;;5053190;28;20255;-62
2021/09/25 12:32:41;;;;;;;3.63;3.20;;;26.80;96.90;;;;;;5052650;28;20225;-63
2021/09/25 12:35:18;;;;;;;3.47;3.08;;;26.90;97.10;;;;;;5053469;28;20563;-62
2021/09/25 12:37:49;;;;;;;3.80;2.78;;;26.90;97.10;;;;;;5053740;28;20194;-62
2021/09/25 12:40:17;;;;;;;3.20;2.90;;;26.90;97.00;;;;;;5053409;28;20744;-65
2021/09/25 12:42:43;;;;;;;5.35;3.30;;;26.90;96.70;;;;;;5053877;28;20230;-62
2021/09/25 12:45:12;;;;;;;5.05;3.17;;;26.90;96.80;;;;;;5053201;28;20210;-62
2021/09/25 12:47:40;;;;;;;4.75;3.25;;;26.90;96.60;;;;;;5053144;28;20209;-62
2021/09/25 12:50:23;;;;;;;4.35;2.80;;;26.80;96.80;;;;;;5053011;28;20228;-62